createdAt,value
2019-04-26T00:02:10.278Z,82.60
2019-04-26T00:04:39.535Z,82.80
2019-04-26T00:07:08.138Z,83.80
2019-04-26T00:09:39.039Z,83.50
2019-04-26T00:12:12.186Z,84.00
2019-04-26T00:14:58.886Z,84.00
2019-04-26T00:17:47.647Z,84.30
2019-04-26T00:20:17.131Z,84.80
2019-04-26T00:22:46.079Z,84.00
2019-04-26T00:25:14.909Z,83.90
2019-04-26T00:27:43.672Z,85.20
2019-04-26T00:30:13.087Z,86.00
2019-04-26T00:32:41.997Z,86.50
2019-04-26T00:35:11.433Z,86.60
2019-04-26T00:37:41.465Z,86.90
2019-04-26T00:40:10.438Z,87.30
2019-04-26T00:42:39.343Z,86.60
2019-04-26T00:45:08.283Z,86.40
2019-04-26T00:47:38.194Z,87.20
2019-04-26T00:50:08.563Z,87.20
2019-04-26T00:52:39.194Z,87.40
2019-04-26T00:55:08.801Z,88.00
2019-04-26T00:57:38.036Z,86.70
2019-04-26T01:00:07.331Z,87.10
2019-04-26T01:02:40.624Z,87.30
2019-04-26T01:05:09.691Z,88.00
2019-04-26T01:07:39.229Z,88.00
2019-04-26T01:10:08.115Z,88.10
2019-04-26T01:12:36.891Z,88.40
2019-04-26T01:15:06.889Z,88.60
2019-04-26T01:17:35.815Z,88.80
2019-04-26T01:20:05.597Z,88.80
2019-04-26T01:22:37.166Z,88.90
2019-04-26T01:25:07.182Z,88.60
2019-04-26T01:27:37.791Z,88.80
2019-04-26T01:30:10.828Z,88.80
2019-04-26T01:32:42.144Z,89.00
2019-04-26T01:35:11.306Z,89.30
2019-04-26T01:37:44.533Z,89.70
2019-04-26T01:40:15.176Z,90.00
2019-04-26T01:42:51.572Z,90.40
2019-04-26T01:45:27.942Z,90.60
2019-04-26T01:47:59.919Z,90.60
2019-04-26T01:50:31.639Z,90.40
2019-04-26T01:53:01.306Z,90.30
2019-04-26T01:55:31.918Z,90.30
2019-04-26T01:58:04.238Z,90.30
2019-04-26T02:00:50.052Z,90.50
2019-04-26T02:03:21.553Z,90.30
2019-04-26T02:05:51.341Z,90.00
2019-04-26T02:08:20.131Z,89.70
2019-04-26T02:10:49.051Z,89.60
2019-04-26T02:13:18.016Z,89.10
2019-04-26T02:15:46.825Z,89.30
2019-04-26T02:18:15.686Z,90.00
2019-04-26T02:20:55.103Z,90.10
2019-04-26T02:23:40.855Z,90.30
2019-04-26T02:26:28.334Z,90.40
2019-04-26T02:28:57.349Z,90.30
2019-04-26T02:31:27.296Z,90.30
2019-04-26T02:33:57.117Z,90.20
2019-04-26T02:36:44.772Z,90.20
2019-04-26T02:39:02.457Z,90.30
2019-04-26T02:41:32.081Z,90.30
2019-04-26T02:44:05.198Z,90.40
2019-04-26T02:46:40.989Z,90.40
2019-04-26T02:49:17.337Z,90.40
2019-04-26T02:51:58.265Z,90.60
2019-04-26T02:54:44.990Z,90.70
2019-04-26T02:57:19.629Z,90.60
2019-04-26T02:59:51.141Z,90.60
2019-04-26T03:02:22.947Z,90.50
2019-04-26T03:04:55.013Z,90.40
2019-04-26T03:07:34.997Z,90.40
2019-04-26T03:10:04.280Z,90.40
2019-04-26T03:12:37.564Z,90.50
2019-04-26T03:15:14.584Z,90.50
2019-04-26T03:17:48.039Z,90.50
2019-04-26T03:20:23.744Z,90.60
2019-04-26T03:23:04.501Z,90.70
2019-04-26T03:25:48.194Z,90.80
2019-04-26T03:28:37.649Z,91.00
2019-04-26T03:31:48.020Z,91.00
2019-04-26T03:34:30.152Z,91.00
2019-04-26T03:37:21.003Z,91.00
2019-04-26T03:39:56.806Z,91.10
2019-04-26T03:42:44.923Z,91.10
2019-04-26T03:45:28.660Z,91.10
2019-04-26T03:48:09.332Z,91.10
2019-04-26T03:50:45.008Z,91.20
2019-04-26T03:53:25.626Z,91.30
2019-04-26T03:56:18.323Z,91.40
2019-04-26T03:59:00.735Z,91.50
2019-04-26T04:01:33.276Z,91.60
2019-04-26T04:04:21.120Z,91.70
2019-04-26T04:07:02.994Z,91.70
2019-04-26T04:09:23.204Z,91.90
2019-04-26T04:12:11.739Z,91.90
2019-04-26T04:15:10.961Z,91.80
2019-04-26T04:17:48.262Z,92.20
2019-04-26T04:20:28.429Z,91.80
2019-04-26T04:23:15.205Z,91.80
2019-04-26T04:25:49.934Z,91.90
2019-04-26T04:28:42.490Z,91.90
2019-04-26T04:31:34.035Z,91.80
2019-04-26T04:37:19.483Z,91.80
2019-04-26T04:39:53.322Z,91.70
2019-04-26T04:42:41.469Z,91.70
2019-04-26T04:45:22.793Z,91.50
2019-04-26T04:48:16.440Z,91.40
2019-04-26T04:51:02.390Z,91.30
2019-04-26T04:58:06.736Z,90.90
2019-04-26T05:01:00.287Z,90.90
2019-04-26T05:03:59.065Z,90.70
2019-04-26T05:09:33.381Z,90.60
2019-04-26T05:27:59.936Z,89.80
2019-04-26T05:30:42.325Z,89.20
2019-04-26T05:33:16.595Z,87.90
2019-04-26T05:36:10.658Z,86.80
2019-04-26T05:58:51.750Z,77.30
2019-04-26T06:01:16.059Z,80.00
2019-04-26T06:04:12.881Z,81.30
2019-04-26T06:06:55.128Z,81.80
2019-04-26T06:09:58.644Z,82.00
2019-04-26T06:13:10.756Z,81.30
2019-04-26T06:22:24.143Z,78.60
2019-04-26T06:25:03.076Z,80.00
2019-04-26T06:27:53.525Z,80.40
2019-04-26T06:30:45.410Z,81.50
2019-04-26T06:33:11.747Z,78.50
2019-04-26T06:35:44.488Z,78.50
2019-04-26T06:38:44.207Z,78.70
2019-04-26T06:41:22.542Z,80.50
2019-04-26T06:44:02.667Z,81.30
2019-04-26T06:47:01.931Z,82.40
2019-04-26T06:49:43.978Z,83.10
2019-04-26T06:52:15.521Z,83.00
2019-04-26T06:54:56.406Z,83.00
2019-04-26T06:58:01.182Z,83.10
2019-04-26T07:00:34.729Z,83.30
2019-04-26T07:03:38.121Z,83.40
2019-04-26T07:06:09.670Z,83.10
2019-04-26T07:08:57.528Z,83.00
2019-04-26T07:11:40.375Z,82.50
2019-04-26T07:14:43.726Z,82.00
2019-04-26T07:17:18.292Z,81.70
2019-04-26T07:20:13.977Z,81.50
2019-04-26T07:23:02.132Z,81.80
2019-04-26T07:25:53.729Z,82.40
2019-04-26T07:32:07.336Z,82.70
2019-04-26T07:35:39.755Z,83.00
2019-04-26T07:45:33.667Z,82.10
2019-04-26T07:54:06.704Z,80.30
2019-04-26T08:03:23.393Z,84.10
2019-04-26T08:16:17.556Z,84.60
2019-04-26T08:24:44.152Z,84.90
2019-04-26T08:27:23.974Z,85.30
2019-04-26T08:29:54.665Z,84.00
2019-04-26T08:32:28.269Z,84.30
2019-04-26T08:35:08.131Z,84.70
2019-04-26T08:37:47.335Z,85.10
2019-04-26T08:40:25.592Z,85.80
2019-04-26T08:42:53.431Z,86.30
2019-04-26T08:45:27.412Z,86.10
2019-04-26T08:48:13.409Z,85.80
2019-04-26T08:50:45.954Z,85.00
2019-04-26T11:36:18.823Z,92.80
2019-04-26T14:09:11.049Z,96.30
2019-04-26T14:14:30.245Z,95.70
2019-04-26T14:20:08.552Z,95.80
2019-04-26T14:25:55.633Z,95.20
2019-04-26T15:53:53.614Z,95.30
2019-04-26T16:11:55.277Z,95.40
2019-04-26T17:31:07.380Z,96.60
2019-04-26T17:33:39.432Z,96.70
